Redwood City, CA (94063)

12:11 AM PDT on August 29, 2016 (GMT -0700)
White Oaks | | Change Station

Elev 52 ft 37.49 °N, 122.26 °W | Updated 6 minutes ago

Clear
Clear
57.7 °F
Feels Like 57.7 °F
N
0.0
Wind Variable Wind from SW
Gusts 0.0 mph

Today
High -- | Low -- °F
--% Chance of Precip.
Yesterday
High -- | Low -- °F
Precip. -- in
Pressure 30.09 in
Visibility 10.0 miles
Clouds Clear
Dew Point 53.0 °F
Humidity 85%
Rainfall 0.00 in
Snow Depth Not available.
6:37 AM 7:41 PM
Waning Crescent, 10% visible
METAR KSQL 290655Z AUTO 31007KT 10SM CLR 15/12 A3009 RMK AO2
Pressure 30.09 in
Visibility 10.0 miles
Clouds Clear
Dew Point 53.0 °F
Humidity 85%
Rainfall 0.00 in
Snow Depth Not available.
6:37 AM 7:41 PM
Waning Crescent, 10% visible
METAR KSQL 290655Z AUTO 31007KT 10SM CLR 15/12 A3009 RMK AO2

10-Day Weather Forecast

Almanac

Astronomy

Aug. 29, 2016 Rise Set
Actual Time
Civil Twilight
Nautical Twilight
Astronomical Twilight
Moon
Length of Visible Light
Length of Day
Tomorrow will be .
, % of the Moon is Illuminated

Today's Extremes

State Highs State Lows

Community

WunderPhotos

Upload Photos

1,935,800 photos uploaded!

WunderBlog® & News

Nearby

Air Quality

  Air Quality AQ Index Pollutant
Not available.

Snow Depth

Station Depth Elevation

Earthquake Activity

City Distance Mag. Time & Date
Minimum magnitude displayed is 2.5.

Coastal Water Temperatures

Place Temperature

Stations

Nearby Weather Stations

Station Location Temp. Windchill Dew Point Humidity Wind Precip. Elev Updated Type
                   

Watches & Warnings

There are currently no watches in effect.